地図

経路データ

SID SEASON NUMBER BASIN SUBBASIN NAME ISO_TIME NATURE LAT LON WMO_WIND WMO_PRES WMO_AGENCY TRACK_TYPE DIST2LAND LANDFALL IFLAG USA_AGENCY USA_ATCF_ID USA_LAT USA_LON USA_RECORD USA_STATUS USA_WIND USA_PRES USA_SSHS USA_R34_NE USA_R34_SE USA_R34_SW USA_R34_NW USA_R50_NE USA_R50_SE USA_R50_SW USA_R50_NW USA_R64_NE USA_R64_SE USA_R64_SW USA_R64_NW USA_POCI USA_ROCI USA_RMW USA_EYE TOKYO_LAT TOKYO_LON TOKYO_GRADE TOKYO_WIND TOKYO_PRES TOKYO_R50_DIR TOKYO_R50_LONG TOKYO_R50_SHORT TOKYO_R30_DIR TOKYO_R30_LONG TOKYO_R30_SHORT TOKYO_LAND CMA_LAT CMA_LON CMA_CAT CMA_WIND CMA_PRES HKO_LAT HKO_LON HKO_CAT HKO_WIND HKO_PRES NEWDELHI_LAT NEWDELHI_LON NEWDELHI_GRADE NEWDELHI_WIND NEWDELHI_PRES NEWDELHI_CI NEWDELHI_DP NEWDELHI_POCI REUNION_LAT REUNION_LON REUNION_TYPE REUNION_WIND REUNION_PRES REUNION_TNUM REUNION_CI REUNION_RMW REUNION_R34_NE REUNION_R34_SE REUNION_R34_SW REUNION_R34_NW REUNION_R50_NE REUNION_R50_SE REUNION_R50_SW REUNION_R50_NW REUNION_R64_NE REUNION_R64_SE REUNION_R64_SW REUNION_R64_NW BOM_LAT BOM_LON BOM_TYPE BOM_WIND BOM_PRES BOM_TNUM BOM_CI BOM_RMW BOM_R34_NE BOM_R34_SE BOM_R34_SW BOM_R34_NW BOM_R50_NE BOM_R50_SE BOM_R50_SW BOM_R50_NW BOM_R64_NE BOM_R64_SE BOM_R64_SW BOM_R64_NW BOM_ROCI BOM_POCI BOM_EYE BOM_POS_METHOD BOM_PRES_METHOD NADI_LAT NADI_LON NADI_CAT NADI_WIND NADI_PRES WELLINGTON_LAT WELLINGTON_LON WELLINGTON_WIND WELLINGTON_PRES DS824_LAT DS824_LON DS824_STAGE DS824_WIND DS824_PRES TD9636_LAT TD9636_LON TD9636_STAGE TD9636_WIND TD9636_PRES TD9635_LAT TD9635_LON TD9635_WIND TD9635_PRES TD9635_ROCI NEUMANN_LAT NEUMANN_LON NEUMANN_CLASS NEUMANN_WIND NEUMANN_PRES MLC_LAT MLC_LON MLC_CLASS MLC_WIND MLC_PRES USA_GUST BOM_GUST BOM_GUST_PER REUNION_GUST REUNION_GUST_PER USA_SEAHGT USA_SEARAD_NE USA_SEARAD_SE USA_SEARAD_SW USA_SEARAD_NW STORM_SPEED STORM_DIR
1859060S09057 1859 6 SI MM NOT_NAMED 1859-02-28 18:00:00 NR -8.80000 56.7000 main 879 852 __________O___ -1 -8.80000 56.7000 7 7 196
1859060S09057 1859 6 SI MM NOT_NAMED 1859-02-28 21:00:00 NR -9.15322 56.6016 main 846 819 __________P___ -1 -9.15322 56.6016 7 8 195
1859060S09057 1859 6 SI MM NOT_NAMED 1859-03-01 00:00:00 NR -9.53512 56.5024 main 819 789 __________P___ -1 -9.53512 56.5024 7 9 194
1859060S09057 1859 6 SI MM NOT_NAMED 1859-03-01 03:00:00 NR -9.97444 56.4021 main 784 751 __________P___ -1 -9.97444 56.4021 7 10 192
1859060S09057 1859 6 SI MM NOT_NAMED 1859-03-01 06:00:00 NR -10.5000 56.3000 main 751 717 __________O___ -1 -10.5000 56.3000 7 12 190
1859060S09057 1859 6 SI MM NOT_NAMED 1859-03-01 09:00:00 NR -11.1275 56.1960 main 717 686 __________P___ -1 -11.1275 56.1960 7 13 189
1859060S09057 1859 6 SI MM NOT_NAMED 1859-03-01 12:00:00 NR -11.8201 56.0927 main 686 655 __________P___ -1 -11.8201 56.0927 7 14 188
1859060S09057 1859 6 SI MM NOT_NAMED 1859-03-01 15:00:00 NR -12.5276 55.9929 main 655 623 __________P___ -1 -12.5276 55.9929 7 14 188
1859060S09057 1859 6 SI MM NOT_NAMED 1859-03-01 18:00:00 NR -13.2000 55.9000 main 623 591 __________O___ -1 -13.2000 55.9000 7 13 188
1859060S09057 1859 6 SI MM NOT_NAMED 1859-03-01 21:00:00 NR -13.7964 55.8096 main 591 568 __________P___ -1 -13.7964 55.8096 7 12 188
1859060S09057 1859 6 SI MM NOT_NAMED 1859-03-02 00:00:00 NR -14.3473 55.7275 main 568 560 __________P___ -1 -14.3473 55.7275 7 11 188
1859060S09057 1859 6 SI MM NOT_NAMED 1859-03-02 03:00:00 NR -14.8496 55.6566 main 560 547 __________P___ -1 -14.8496 55.6566 7 10 188
1859060S09057 1859 6 SI MM NOT_NAMED 1859-03-02 06:00:00 NR -15.3000 55.6000 main 547 531 __________O___ -1 -15.3000 55.6000 7 8 186
1859060S09057 1859 6 SI MM NOT_NAMED 1859-03-02 09:00:00 NR -15.6881 55.5644 main 531 505 __________P___ -1 -15.6881 55.5644 7 7 184
1859060S09057 1859 6 SI MM NOT_NAMED 1859-03-02 12:00:00 NR -16.0299 55.5421 main 505 474 __________P___ -1 -16.0299 55.5421 7 7 184
1859060S09057 1859 6 SI MM NOT_NAMED 1859-03-02 15:00:00 NR -16.3568 55.5238 main 464 434 __________P___ -1 -16.3568 55.5238 7 7 184
1859060S09057 1859 6 SI MM NOT_NAMED 1859-03-02 18:00:00 NR -16.7000 55.5000 main 434 396 __________O___ -1 -16.7000 55.5000 7 7 185
1859060S09057 1859 6 SI MM NOT_NAMED 1859-03-02 21:00:00 NR -17.0953 55.4492 main 402 365 __________P___ -1 -17.0953 55.4492 7 8 187
1859060S09057 1859 6 SI MM NOT_NAMED 1859-03-03 00:00:00 NR -17.5126 55.3927 main 365 337 __________P___ -1 -17.5126 55.3927 7 9 187
1859060S09057 1859 6 SI MM NOT_NAMED 1859-03-03 03:00:00 NR -17.9485 55.3399 main 337 290 __________P___ -1 -17.9485 55.3399 7 9 186
1859060S09057 1859 6 SI MM NOT_NAMED 1859-03-03 06:00:00 NR -18.4000 55.3000 main 290 246 __________O___ -1 -18.4000 55.3000 7 9 184
1859060S09057 1859 6 SI MM NOT_NAMED 1859-03-03 09:00:00 NR -18.8769 55.2854 main 234 190 __________P___ -1 -18.8769 55.2854 7 10 181
1859060S09057 1859 6 SI MM NOT_NAMED 1859-03-03 12:00:00 NR -19.3650 55.2848 main 178 134 __________P___ -1 -19.3650 55.2848 7 10 178
1859060S09057 1859 6 SI MM NOT_NAMED 1859-03-03 15:00:00 NR -19.8456 55.2917 main 134 78 __________P___ -1 -19.8456 55.2917 7 9 178
1859060S09057 1859 6 SI MM NOT_NAMED 1859-03-03 18:00:00 NR -20.3000 55.3000 main 78 33 __________O___ -1 -20.3000 55.3000 7 8 181
1859060S09057 1859 6 SI MM NOT_NAMED 1859-03-03 21:00:00 NR -20.6753 55.2841 main 33 0 __________P___ -1 -20.6753 55.2841 7 7 0
1859060S09057 1859 6 SI MM NOT_NAMED 1859-03-04 00:00:00 NR -21.0275 55.2706 main 0 0 __________P___ -1 -21.0275 55.2706 7 7 0
1859060S09057 1859 6 SI MM NOT_NAMED 1859-03-04 03:00:00 NR -21.3909 55.2718 main 11 11 __________P___ -1 -21.3909 55.2718 7 8 0
1859060S09057 1859 6 SI MM NOT_NAMED 1859-03-04 06:00:00 NR -21.8000 55.3000 main 54 54 __________O___ -1 -21.8000 55.3000 7 9 176
1859060S09057 1859 6 SI MM NOT_NAMED 1859-03-04 09:00:00 NR -22.3077 55.3511 main 102 102 __________P___ -1 -22.3077 55.3511 7 11 173
1859060S09057 1859 6 SI MM NOT_NAMED 1859-03-04 12:00:00 NR -22.8624 55.4329 main 168 168 __________P___ -1 -22.8624 55.4329 7 11 171
1859060S09057 1859 6 SI MM NOT_NAMED 1859-03-04 15:00:00 NR -23.4358 55.5483 main 223 223 __________P___ -1 -23.4358 55.5483 7 12 168
1859060S09057 1859 6 SI MM NOT_NAMED 1859-03-04 18:00:00 NR -24.0000 55.7000 main 290 290 __________O___ -1 -24.0000 55.7000 7 11 165
1859060S09057 1859 6 SI MM NOT_NAMED 1859-03-04 21:00:00 NR -24.4734 55.8545 main 347 347 __________P___ -1 -24.4734 55.8545 7 10 161
1859060S09057 1859 6 SI MM NOT_NAMED 1859-03-05 00:00:00 NR -24.9394 56.0483 main 393 393 __________P___ -1 -24.9394 56.0483 7 10 158
1859060S09057 1859 6 SI MM NOT_NAMED 1859-03-05 03:00:00 NR -25.4357 56.2929 main 452 452 __________P___ -1 -25.4357 56.2929 7 12 155
1859060S09057 1859 6 SI MM NOT_NAMED 1859-03-05 06:00:00 NR -26.0000 56.6000 main 524 524 __________O___ -1 -26.0000 56.6000 7 14 154
1859060S09057 1859 6 SI MM NOT_NAMED 1859-03-05 09:00:00 NR -26.7113 56.9949 main 609 609 __________P___ -1 -26.7113 56.9949 7 17 153
1859060S09057 1859 6 SI MM NOT_NAMED 1859-03-05 12:00:00 NR -27.4860 57.4514 main 708 708 __________P___ -1 -27.4860 57.4514 7 18 152
1859060S09057 1859 6 SI MM NOT_NAMED 1859-03-05 15:00:00 NR -28.2676 57.9326 main 805 805 __________P___ -1 -28.2676 57.9326 7 17 151
1859060S09057 1859 6 SI MM NOT_NAMED 1859-03-05 18:00:00 NR -29.0000 58.4000 main 894 894 __________O___ -1 -29.0000 58.4000 7 16 150
1859060S09057 1859 6 SI MM NOT_NAMED 1859-03-05 21:00:00 NR -29.6414 58.8220 main 970 970 __________P___ -1 -29.6414 58.8220 7 14 150
1859060S09057 1859 6 SI MM NOT_NAMED 1859-03-06 00:00:00 NR -30.2045 59.2032 main 1046 1046 __________P___ -1 -30.2045 59.2032 7 13 149
1859060S09057 1859 6 SI MM NOT_NAMED 1859-03-06 03:00:00 NR -30.7155 59.5576 main 1112 1112 __________P___ -1 -30.7155 59.5576 7 12 149
1859060S09057 1859 6 SI MM NOT_NAMED 1859-03-06 06:00:00 NR -31.2000 59.9000 main 1175 __________O___ -1 -31.2000 59.9000 7 11 149

IBTrACS Databaseについて

本データベースは、米国NOAAが公開する1842年以降の世界の熱帯低気圧のベストトラックデータアーカイブInternational Best Track Archive for Climate Stewardship (IBTrACS)を、ウェブで閲覧しやすい形式に変換したものです。

最終更新日:2021-10-19